South Bay, Washington
Current Conditions -  °F | °C
As of 2:54 AM on Wednesday 22 Oct 2014 (Local Time) from KOLM Reporting Station
Light Rain Light Rain  
Wind Chill: 56°   Ceiling: 4900
Heat Index: 56°   Visibility: 10mi
Dew Point: 49°   Wind: 20mph
Humidity: 77%   Direction: 190°S
Pressure: 29.68"   Gusts: 33mph
Location:  46.9755°N, 122.872°W
Report Text: KOLM 220954Z AUTO 19017G29KT 10SM -RA FEW025 FEW032 OVC049 13/09 A2968 RMK AO2 PK WND 18031/0909 RAB45 SLP050 P0000 T01330094
Loading
Personal Weather Stations






























Interactive Weather Map
Tropical Storm Tracking
New forecast layout! Learn more

10-Day Weather Forecast

Advertisements
Track Severe Weather on mobile